Sandy, Texas
Current Conditions -  °F | °C
As of 10:55 PM on Sunday 21 Dec 2014 (Local Time) from KDZB Reporting Station
Overcast Overcast  
Wind Chill: 53°   Ceiling: 1600
Heat Index: 53°   Visibility: 10mi
Dew Point: 47°   Wind: 13mph
Humidity: 81%   Direction: 230°SW
Pressure: 29.83"   Gusts: 17mph
Location:  30.36°N, 98.47°W
Report Text: KDZB 220455Z AUTO 23011G15KT 170V250 10SM OVC016 11/08 A2983 RMK AO2 T01140083
Loading
Personal Weather Stations






























Interactive Weather Map New forecast layout! Learn more

10-Day Weather Forecast

Advertisements
Track Severe Weather on mobile